createdAt,value
2023-02-12T00:01:24.397Z,59.50
2023-02-12T00:04:49.341Z,59.60
2023-02-12T00:08:14.290Z,59.60
2023-02-12T00:11:37.810Z,59.60
2023-02-12T00:15:01.320Z,59.70
2023-02-12T00:18:24.951Z,59.70
2023-02-12T00:21:48.397Z,59.80
2023-02-12T00:25:13.927Z,59.70
2023-02-12T00:28:37.951Z,59.80
2023-02-12T00:32:01.697Z,59.80
2023-02-12T00:35:25.703Z,59.90
2023-02-12T00:38:52.141Z,60.50
2023-02-12T00:42:17.031Z,59.80
2023-02-12T00:45:40.506Z,59.90
2023-02-12T00:49:03.974Z,59.80
2023-02-12T00:52:28.030Z,59.90
2023-02-12T00:55:51.568Z,60.10
2023-02-12T00:59:16.547Z,60.00
2023-02-12T01:02:40.054Z,60.10
2023-02-12T01:06:05.858Z,60.20
2023-02-12T01:09:29.990Z,60.30
2023-02-12T01:12:54.164Z,60.20
2023-02-12T01:16:22.742Z,60.40
2023-02-12T01:19:46.686Z,60.50
2023-02-12T01:23:10.184Z,60.30
2023-02-12T01:26:33.987Z,60.50
2023-02-12T01:29:57.626Z,60.50
2023-02-12T01:33:22.496Z,60.30
2023-02-12T01:36:45.981Z,60.30
2023-02-12T01:40:14.749Z,60.40
2023-02-12T01:43:42.170Z,60.60
2023-02-12T01:47:07.578Z,60.60
2023-02-12T01:50:32.586Z,60.50
2023-02-12T01:53:59.729Z,60.60
2023-02-12T01:57:25.790Z,60.70
2023-02-12T02:00:49.515Z,60.60
2023-02-12T02:04:21.106Z,60.40
2023-02-12T02:07:47.669Z,60.50
2023-02-12T02:11:25.327Z,60.60
2023-02-12T02:14:51.746Z,60.50
2023-02-12T02:18:26.028Z,60.90
2023-02-12T02:22:28.482Z,60.80
2023-02-12T02:26:34.514Z,61.20
2023-02-12T02:30:35.816Z,61.00
2023-02-12T02:34:09.166Z,61.10
2023-02-12T02:37:40.544Z,60.80
2023-02-12T02:41:12.948Z,60.90
2023-02-12T02:44:43.290Z,60.80
2023-02-12T02:48:15.405Z,60.80
2023-02-12T02:51:45.060Z,60.80
2023-02-12T02:55:14.084Z,60.80
2023-02-12T02:58:44.694Z,60.90
2023-02-12T03:02:15.246Z,60.90
2023-02-12T03:05:45.713Z,61.10
2023-02-12T03:09:20.293Z,61.00
2023-02-12T03:12:52.461Z,61.00
2023-02-12T03:16:21.813Z,61.00
2023-02-12T03:19:51.244Z,61.00
2023-02-12T03:23:23.558Z,61.10
2023-02-12T03:26:52.889Z,61.00
2023-02-12T03:30:17.271Z,61.00
2023-02-12T03:34:00.694Z,61.00
2023-02-12T03:37:34.811Z,61.20
2023-02-12T03:41:09.879Z,61.10
2023-02-12T03:44:50.028Z,61.10
2023-02-12T03:48:24.627Z,61.00
2023-02-12T03:51:48.196Z,61.20
2023-02-12T03:55:12.875Z,61.00
2023-02-12T03:58:40.940Z,61.30
2023-02-12T04:02:04.903Z,61.40
2023-02-12T04:05:29.621Z,61.30
2023-02-12T04:08:56.405Z,61.40
2023-02-12T04:12:40.719Z,61.30
2023-02-12T04:16:24.370Z,61.90
2023-02-12T04:20:06.332Z,61.60
2023-02-12T04:23:48.527Z,61.40
2023-02-12T04:27:24.289Z,61.50
2023-02-12T04:30:58.241Z,61.40
2023-02-12T04:34:33.269Z,61.40
2023-02-12T04:38:08.681Z,61.70
2023-02-12T04:41:33.035Z,61.30
2023-02-12T04:44:56.619Z,61.50
2023-02-12T04:48:20.277Z,61.50
2023-02-12T04:51:46.397Z,61.50
2023-02-12T04:55:09.986Z,61.60
2023-02-12T04:58:33.951Z,61.60
2023-02-12T05:01:57.479Z,61.50
2023-02-12T05:05:22.322Z,61.50
2023-02-12T05:08:47.288Z,61.70
2023-02-12T05:12:10.886Z,61.60
2023-02-12T05:15:38.168Z,61.60
2023-02-12T05:19:02.335Z,61.60
2023-02-12T05:22:25.864Z,61.50
2023-02-12T05:25:50.741Z,61.50
2023-02-12T05:29:14.824Z,61.60
2023-02-12T05:32:38.459Z,61.50
2023-02-12T05:36:06.268Z,61.60
2023-02-12T05:39:29.765Z,62.50
2023-02-12T05:42:54.621Z,61.70
2023-02-12T05:46:20.211Z,61.70
2023-02-12T05:49:43.777Z,61.80
2023-02-12T05:53:07.298Z,61.80
2023-02-12T05:56:34.279Z,61.70
2023-02-12T05:59:59.102Z,61.80
2023-02-12T06:03:22.574Z,61.70
2023-02-12T06:06:46.544Z,61.80
2023-02-12T06:10:12.031Z,62.00
2023-02-12T06:13:36.184Z,62.00
2023-02-12T06:17:01.757Z,62.00
2023-02-12T06:20:25.363Z,62.70
2023-02-12T06:23:50.083Z,61.70
2023-02-12T06:27:13.674Z,62.00
2023-02-12T06:30:37.747Z,61.90
2023-02-12T06:34:07.985Z,62.20
2023-02-12T06:37:32.587Z,62.20
2023-02-12T06:40:56.061Z,62.00
2023-02-12T06:44:19.604Z,62.00
2023-02-12T06:47:43.128Z,62.00
2023-02-12T06:51:10.557Z,62.00
2023-02-12T06:54:34.106Z,62.30
2023-02-12T06:57:57.722Z,62.10
2023-02-12T07:01:25.010Z,62.10
2023-02-12T07:04:49.044Z,62.30
2023-02-12T07:08:13.916Z,62.20
2023-02-12T07:11:38.619Z,62.30
2023-02-12T07:15:02.360Z,62.40
2023-02-12T07:18:25.902Z,62.20
2023-02-12T07:21:49.837Z,62.20
2023-02-12T07:25:14.853Z,62.40
2023-02-12T07:28:39.463Z,62.50
2023-02-12T07:32:03.138Z,63.30
2023-02-12T07:35:27.099Z,62.60
2023-02-12T07:38:50.967Z,62.70
2023-02-12T07:42:16.537Z,62.60
2023-02-12T07:45:45.480Z,62.80
2023-02-12T07:49:13.875Z,62.80
2023-02-12T07:52:37.350Z,62.90
2023-02-12T07:56:11.658Z,62.80
2023-02-12T07:59:36.741Z,63.10
2023-02-12T08:03:00.227Z,62.90
2023-02-12T08:06:27.329Z,63.00
2023-02-12T08:09:51.404Z,63.00
2023-02-12T08:13:14.944Z,62.90
2023-02-12T08:16:43.303Z,63.00
2023-02-12T08:20:08.248Z,63.10
2023-02-12T08:23:32.557Z,63.20
2023-02-12T08:26:57.236Z,63.10
2023-02-12T08:30:20.885Z,63.90
2023-02-12T08:33:48.269Z,63.00
2023-02-12T08:37:11.762Z,63.20
2023-02-12T08:40:35.488Z,63.10
2023-02-12T08:44:01.455Z,63.20
2023-02-12T08:47:24.934Z,63.30
2023-02-12T08:50:49.942Z,63.20
2023-02-12T08:54:17.579Z,63.30
2023-02-12T08:57:42.984Z,64.10
2023-02-12T09:01:11.534Z,63.20
2023-02-12T09:04:35.990Z,63.40
2023-02-12T09:08:00.888Z,63.30
2023-02-12T09:11:30.694Z,62.00
2023-02-12T09:14:54.444Z,62.20
2023-02-12T09:18:18.565Z,62.00
2023-02-12T09:21:43.400Z,62.10
2023-02-12T09:25:09.243Z,62.00
2023-02-12T09:28:33.132Z,62.10
2023-02-12T09:31:57.743Z,62.70
2023-02-12T09:35:21.345Z,62.00
2023-02-12T09:38:45.704Z,62.00
2023-02-12T09:42:28.993Z,62.10
2023-02-12T09:46:04.960Z,62.20
2023-02-12T09:49:57.870Z,62.20
2023-02-12T09:53:26.112Z,62.30
2023-02-12T09:56:55.926Z,62.50
2023-02-12T10:00:31.056Z,62.50
2023-02-12T10:03:55.828Z,62.40
2023-02-12T10:07:39.849Z,62.50
2023-02-12T10:11:36.856Z,62.50
2023-02-12T10:15:36.600Z,62.60
2023-02-12T10:19:23.385Z,62.70
2023-02-12T10:23:02.876Z,62.80
2023-02-12T10:26:32.139Z,62.80
2023-02-12T10:29:59.646Z,62.70
2023-02-12T10:33:31.184Z,62.60
2023-02-12T10:37:04.927Z,62.60
2023-02-12T10:40:34.251Z,62.60
2023-02-12T10:43:59.086Z,62.80
2023-02-12T10:47:26.400Z,62.80
2023-02-12T10:51:15.415Z,62.70
2023-02-12T10:54:43.535Z,62.30
2023-02-12T10:58:21.997Z,62.40
2023-02-12T11:01:48.925Z,62.10
2023-02-12T11:05:26.445Z,62.20
2023-02-12T11:08:51.864Z,62.20
2023-02-12T11:12:35.796Z,62.30
2023-02-12T11:16:01.077Z,62.00
2023-02-12T11:19:28.856Z,62.10
2023-02-12T11:22:56.316Z,62.10
2023-02-12T11:26:31.491Z,62.20
2023-02-12T11:30:21.069Z,62.00
2023-02-12T11:33:45.657Z,62.00
2023-02-12T11:37:18.420Z,62.00
2023-02-12T11:40:48.923Z,61.90
2023-02-12T11:44:20.377Z,61.90
2023-02-12T11:47:44.153Z,62.00
2023-02-12T11:51:19.281Z,61.70
2023-02-12T11:54:49.470Z,61.70
2023-02-12T11:58:21.784Z,61.90
2023-02-12T12:01:48.362Z,62.00
2023-02-12T12:05:19.478Z,62.10
2023-02-12T12:08:49.558Z,62.20
2023-02-12T12:12:22.933Z,62.20
2023-02-12T12:16:12.757Z,62.40
2023-02-12T12:19:54.831Z,62.70
2023-02-12T12:23:26.386Z,61.40
2023-02-12T12:27:00.887Z,62.40
2023-02-12T12:30:35.448Z,62.30
2023-02-12T12:34:10.002Z,62.30
2023-02-12T12:37:48.392Z,63.60
2023-02-12T12:41:28.636Z,62.20
2023-02-12T12:45:14.108Z,62.20
2023-02-12T12:49:06.218Z,62.50
2023-02-12T12:52:58.902Z,62.50
2023-02-12T12:56:49.401Z,62.20
2023-02-12T13:00:38.851Z,62.10
2023-02-12T13:04:46.263Z,61.60
2023-02-12T13:08:31.872Z,61.30
2023-02-12T13:12:39.755Z,60.80
2023-02-12T13:16:14.357Z,60.70
2023-02-12T13:19:59.507Z,60.50
2023-02-12T13:23:39.248Z,60.20
2023-02-12T13:27:07.340Z,59.20
2023-02-12T13:30:37.993Z,60.40
2023-02-12T13:34:05.386Z,60.30
2023-02-12T13:37:39.910Z,60.50
2023-02-12T13:41:10.590Z,60.60
2023-02-12T13:44:45.622Z,60.70
2023-02-12T13:48:33.753Z,61.00
2023-02-12T13:52:07.939Z,61.30
2023-02-12T13:55:39.383Z,61.00
2023-02-12T13:59:04.795Z,60.90
2023-02-12T14:02:49.738Z,60.70
2023-02-12T14:06:20.699Z,61.20
2023-02-12T14:09:47.538Z,60.60
2023-02-12T14:13:20.464Z,60.50
2023-02-12T14:16:45.397Z,60.30
2023-02-12T14:20:22.575Z,60.30
2023-02-12T14:23:47.610Z,60.50
2023-02-12T14:27:34.210Z,60.50
2023-02-12T14:31:31.707Z,60.30
2023-02-12T14:35:16.743Z,60.40
2023-02-12T14:39:06.126Z,60.40
2023-02-12T14:42:57.008Z,60.30
2023-02-12T14:46:48.936Z,60.30
2023-02-12T14:50:23.052Z,60.30
2023-02-12T14:53:50.137Z,60.30
2023-02-12T14:57:26.270Z,60.20
2023-02-12T15:00:56.182Z,60.10
2023-02-12T15:04:28.318Z,60.10
2023-02-12T15:07:59.302Z,60.10
2023-02-12T15:11:36.664Z,60.10
2023-02-12T15:15:12.709Z,60.10
2023-02-12T15:18:52.243Z,60.00
2023-02-12T15:22:25.753Z,60.00
2023-02-12T15:25:52.442Z,60.10
2023-02-12T15:29:23.335Z,60.00
2023-02-12T15:32:48.007Z,60.00
2023-02-12T15:36:18.565Z,60.00
2023-02-12T15:39:48.019Z,60.00
2023-02-12T15:43:20.299Z,60.00
2023-02-12T15:46:59.728Z,60.00
2023-02-12T15:50:23.599Z,60.10
2023-02-12T15:53:47.743Z,59.90
2023-02-12T15:57:14.390Z,60.00
2023-02-12T16:00:46.200Z,60.00
2023-02-12T16:04:12.163Z,60.10
2023-02-12T16:07:39.612Z,60.00
2023-02-12T16:11:13.963Z,59.90
2023-02-12T16:14:44.658Z,60.00
2023-02-12T16:18:25.559Z,60.20
2023-02-12T16:21:53.697Z,60.30
2023-02-12T16:25:21.910Z,60.20
2023-02-12T16:28:49.460Z,60.10
2023-02-12T16:32:32.526Z,59.80
2023-02-12T16:36:04.894Z,60.00
2023-02-12T16:40:22.372Z,60.00
2023-02-12T16:43:46.804Z,60.20
2023-02-12T16:47:23.045Z,60.00
2023-02-12T16:50:52.031Z,60.30
2023-02-12T16:54:37.982Z,60.50
2023-02-12T16:58:02.098Z,60.70
2023-02-12T17:01:29.497Z,60.30
2023-02-12T17:04:56.742Z,60.30
2023-02-12T17:08:24.172Z,61.00
2023-02-12T17:11:49.102Z,61.60
2023-02-12T17:15:23.925Z,60.40
2023-02-12T17:18:48.003Z,61.80
2023-02-12T17:22:23.131Z,61.60
2023-02-12T17:25:46.840Z,61.90
2023-02-12T17:29:11.784Z,61.40
2023-02-12T17:32:35.825Z,61.70
2023-02-12T17:36:00.392Z,61.60
2023-02-12T17:39:23.894Z,61.70
2023-02-12T17:42:47.930Z,61.40
2023-02-12T17:46:14.534Z,61.50
2023-02-12T17:49:39.823Z,61.60
2023-02-12T17:53:03.406Z,61.20
2023-02-12T17:56:26.961Z,61.40
2023-02-12T17:59:50.535Z,61.40
2023-02-12T18:03:15.419Z,61.30
2023-02-12T18:06:39.186Z,61.60
2023-02-12T18:10:02.898Z,61.90
2023-02-12T18:13:26.732Z,61.90
2023-02-12T18:16:50.551Z,61.80
2023-02-12T18:20:15.757Z,61.70
2023-02-12T18:23:40.147Z,62.00
2023-02-12T18:27:03.672Z,61.80
2023-02-12T18:30:27.831Z,61.50
2023-02-12T18:33:51.704Z,61.50
2023-02-12T18:37:16.885Z,61.70
2023-02-12T18:40:41.533Z,62.30
2023-02-12T18:44:05.533Z,62.20
2023-02-12T18:47:28.984Z,62.30
2023-02-12T18:50:55.276Z,62.80
2023-02-12T18:54:20.482Z,62.60
2023-02-12T18:57:43.956Z,63.90
2023-02-12T19:01:15.216Z,62.80
2023-02-12T19:04:38.903Z,63.10
2023-02-12T19:08:03.050Z,62.80
2023-02-12T19:11:28.967Z,62.80
2023-02-12T19:14:52.665Z,63.00
2023-02-12T19:18:16.524Z,62.60
2023-02-12T19:21:40.465Z,62.60
2023-02-12T19:25:04.271Z,62.70
2023-02-12T19:28:29.326Z,62.60
2023-02-12T19:31:52.987Z,62.70
2023-02-12T19:35:16.798Z,62.40
2023-02-12T19:38:40.876Z,62.00
2023-02-12T19:42:05.124Z,62.30
2023-02-12T19:45:30.269Z,62.20
2023-02-12T19:48:58.269Z,62.10
2023-02-12T19:52:21.880Z,62.10
2023-02-12T19:55:45.365Z,62.00
2023-02-12T19:59:10.269Z,62.00
2023-02-12T20:02:35.162Z,62.40
2023-02-12T20:06:03.041Z,61.90
2023-02-12T20:09:27.126Z,62.10
2023-02-12T20:12:50.748Z,61.90
2023-02-12T20:16:18.490Z,61.60
2023-02-12T20:19:43.970Z,61.70
2023-02-12T20:23:07.752Z,61.50
2023-02-12T20:26:33.315Z,61.50
2023-02-12T20:29:56.864Z,61.70
2023-02-12T20:33:20.420Z,61.50
2023-02-12T20:36:47.756Z,61.70
2023-02-12T20:40:12.086Z,61.80
2023-02-12T20:43:37.035Z,61.70
2023-02-12T20:47:00.589Z,61.70
2023-02-12T20:50:24.259Z,61.50
2023-02-12T20:53:50.539Z,62.50
2023-02-12T20:57:14.491Z,61.90
2023-02-12T21:00:38.309Z,61.70
2023-02-12T21:04:06.608Z,61.70
2023-02-12T21:07:30.377Z,62.50
2023-02-12T21:11:01.737Z,61.70
2023-02-12T21:14:25.725Z,61.90
2023-02-12T21:17:49.333Z,61.70
2023-02-12T21:21:15.745Z,61.50
2023-02-12T21:24:39.412Z,61.90
2023-02-12T21:28:04.541Z,61.80
2023-02-12T21:31:31.544Z,61.80
2023-02-12T21:34:55.125Z,62.40
2023-02-12T21:38:18.721Z,62.20
2023-02-12T21:41:44.002Z,61.80
2023-02-12T21:45:10.635Z,61.90
2023-02-12T21:48:34.774Z,62.10
2023-02-12T21:52:02.043Z,62.10
2023-02-12T21:55:25.831Z,62.00
2023-02-12T21:58:52.001Z,62.20
2023-02-12T22:02:16.961Z,62.00
2023-02-12T22:05:40.510Z,61.80
2023-02-12T22:09:07.854Z,62.30
2023-02-12T22:12:32.330Z,62.00
2023-02-12T22:15:56.269Z,61.90
2023-02-12T22:19:22.322Z,61.90
2023-02-12T22:22:45.891Z,62.00
2023-02-12T22:26:13.608Z,61.90
2023-02-12T22:29:37.416Z,62.20
2023-02-12T22:33:01.032Z,62.20
2023-02-12T22:36:27.712Z,62.20
2023-02-12T22:39:51.529Z,62.40
2023-02-12T22:43:15.517Z,62.30
2023-02-12T22:46:38.994Z,62.20
2023-02-12T22:50:02.822Z,62.40
2023-02-12T22:53:28.028Z,62.80
2023-02-12T22:56:53.002Z,62.60
2023-02-12T23:00:18.943Z,62.80
2023-02-12T23:03:43.198Z,62.70
2023-02-12T23:07:06.804Z,62.70
2023-02-12T23:10:32.503Z,62.80
2023-02-12T23:13:56.789Z,62.90
2023-02-12T23:17:20.391Z,62.80
2023-02-12T23:20:44.087Z,63.50
2023-02-12T23:24:08.184Z,63.10
2023-02-12T23:27:33.714Z,63.00
2023-02-12T23:30:58.016Z,63.30
2023-02-12T23:34:21.822Z,63.20
2023-02-12T23:37:45.361Z,64.00
2023-02-12T23:41:09.174Z,63.00
2023-02-12T23:44:34.199Z,63.40
2023-02-12T23:47:58.132Z,63.10
2023-02-12T23:51:21.760Z,63.30
2023-02-12T23:54:45.415Z,63.10
2023-02-12T23:58:10.456Z,63.10
